Westside, Georgia
Current Conditions -  °F | °C
As of 2:53 AM on Monday 24 Nov 2014 (Local Time) from KGVL Reporting Station
Overcast Overcast  
Wind Chill: 55°   Ceiling: 2200
Heat Index: 55°   Visibility: 8mi
Dew Point: 54°   Wind: 3mph
Humidity: 96%   Direction: 200°SSW
Pressure: 29.77"   Gusts: NA
Location:  34.3157°N, 83.8152°W
Report Text: KGVL 240753Z AUTO 20003KT 8SM SCT012 OVC022 13/12 A2977 RMK AO2 SLP078 T01280122
Loading
Personal Weather Stations






























Interactive Weather Map New forecast layout! Learn more

10-Day Weather Forecast

Advertisements
Track Severe Weather on mobile